sensor_id;sensor_type;location;lat;lon;timestamp;P1;durP1;ratioP1;P2;durP2;ratioP2
56929;SDS011;43458;44.012;20.922;2022-07-17T00:00:41;6.13;;;3.95;;
56929;SDS011;43458;44.012;20.922;2022-07-17T00:03:16;7.78;;;4.53;;
56929;SDS011;43458;44.012;20.922;2022-07-17T00:05:43;9.27;;;4.13;;
56929;SDS011;43458;44.012;20.922;2022-07-17T00:08:09;9.90;;;5.30;;
56929;SDS011;43458;44.012;20.922;2022-07-17T00:10:37;9.25;;;5.88;;
56929;SDS011;43458;44.012;20.922;2022-07-17T00:13:03;9.80;;;6.15;;
56929;SDS011;43458;44.012;20.922;2022-07-17T00:15:30;10.60;;;5.85;;
56929;SDS011;43458;44.012;20.922;2022-07-17T00:17:56;8.32;;;5.97;;
56929;SDS011;43458;44.012;20.922;2022-07-17T00:20:23;7.90;;;5.00;;
56929;SDS011;43458;44.012;20.922;2022-07-17T00:22:50;8.10;;;4.45;;
56929;SDS011;43458;44.012;20.922;2022-07-17T00:25:16;6.47;;;3.92;;
56929;SDS011;43458;44.012;20.922;2022-07-17T00:27:42;8.93;;;4.85;;
56929;SDS011;43458;44.012;20.922;2022-07-17T00:30:09;12.02;;;5.55;;
56929;SDS011;43458;44.012;20.922;2022-07-17T00:32:35;14.68;;;5.15;;
56929;SDS011;43458;44.012;20.922;2022-07-17T00:35:01;6.88;;;4.80;;
56929;SDS011;43458;44.012;20.922;2022-07-17T00:37:28;8.50;;;4.68;;
56929;SDS011;43458;44.012;20.922;2022-07-17T00:39:54;9.63;;;4.40;;
56929;SDS011;43458;44.012;20.922;2022-07-17T00:42:20;10.15;;;4.32;;
56929;SDS011;43458;44.012;20.922;2022-07-17T00:44:46;7.82;;;4.20;;
56929;SDS011;43458;44.012;20.922;2022-07-17T00:49:38;7.38;;;3.50;;
56929;SDS011;43458;44.012;20.922;2022-07-17T00:52:04;5.15;;;3.83;;
56929;SDS011;43458;44.012;20.922;2022-07-17T00:54:31;5.90;;;3.60;;
56929;SDS011;43458;44.012;20.922;2022-07-17T00:57:00;6.43;;;3.47;;
56929;SDS011;43458;44.012;20.922;2022-07-17T00:59:26;5.25;;;3.08;;
56929;SDS011;43458;44.012;20.922;2022-07-17T01:01:53;7.45;;;3.42;;
56929;SDS011;43458;44.012;20.922;2022-07-17T01:04:19;6.00;;;3.80;;
56929;SDS011;43458;44.012;20.922;2022-07-17T01:06:45;4.40;;;3.20;;
56929;SDS011;43458;44.012;20.922;2022-07-17T01:09:11;7.10;;;3.65;;
56929;SDS011;43458;44.012;20.922;2022-07-17T01:11:37;5.95;;;3.83;;
56929;SDS011;43458;44.012;20.922;2022-07-17T01:14:04;6.72;;;3.78;;
56929;SDS011;43458;44.012;20.922;2022-07-17T01:16:30;7.38;;;4.22;;
56929;SDS011;43458;44.012;20.922;2022-07-17T01:18:56;6.82;;;3.65;;
56929;SDS011;43458;44.012;20.922;2022-07-17T01:21:22;7.85;;;4.15;;
56929;SDS011;43458;44.012;20.922;2022-07-17T01:23:49;7.93;;;4.72;;
56929;SDS011;43458;44.012;20.922;2022-07-17T01:26:15;9.57;;;4.15;;
56929;SDS011;43458;44.012;20.922;2022-07-17T01:28:41;6.18;;;4.30;;
56929;SDS011;43458;44.012;20.922;2022-07-17T01:31:07;10.90;;;4.95;;
56929;SDS011;43458;44.012;20.922;2022-07-17T01:33:33;7.40;;;4.65;;
56929;SDS011;43458;44.012;20.922;2022-07-17T01:35:59;7.65;;;4.53;;
56929;SDS011;43458;44.012;20.922;2022-07-17T01:38:25;8.40;;;5.07;;
56929;SDS011;43458;44.012;20.922;2022-07-17T01:40:51;8.10;;;4.95;;
56929;SDS011;43458;44.012;20.922;2022-07-17T01:43:17;9.90;;;6.93;;
56929;SDS011;43458;44.012;20.922;2022-07-17T01:45:43;13.13;;;8.02;;
56929;SDS011;43458;44.012;20.922;2022-07-17T01:48:09;11.30;;;7.10;;
56929;SDS011;43458;44.012;20.922;2022-07-17T01:50:35;9.13;;;6.07;;
56929;SDS011;43458;44.012;20.922;2022-07-17T01:53:02;9.90;;;6.53;;
56929;SDS011;43458;44.012;20.922;2022-07-17T01:55:28;13.02;;;7.65;;
56929;SDS011;43458;44.012;20.922;2022-07-17T01:57:54;10.50;;;6.18;;
56929;SDS011;43458;44.012;20.922;2022-07-17T02:00:21;9.60;;;6.25;;
56929;SDS011;43458;44.012;20.922;2022-07-17T02:02:49;9.50;;;6.13;;
56929;SDS011;43458;44.012;20.922;2022-07-17T02:05:15;10.25;;;6.68;;
56929;SDS011;43458;44.012;20.922;2022-07-17T02:07:41;9.80;;;6.00;;
56929;SDS011;43458;44.012;20.922;2022-07-17T02:10:09;11.55;;;6.55;;
56929;SDS011;43458;44.012;20.922;2022-07-17T02:12:35;9.18;;;6.25;;
56929;SDS011;43458;44.012;20.922;2022-07-17T02:15:02;9.98;;;6.20;;
56929;SDS011;43458;44.012;20.922;2022-07-17T02:17:29;9.00;;;5.90;;
56929;SDS011;43458;44.012;20.922;2022-07-17T02:19:55;10.63;;;6.30;;
56929;SDS011;43458;44.012;20.922;2022-07-17T02:22:21;12.35;;;6.40;;
56929;SDS011;43458;44.012;20.922;2022-07-17T02:24:47;9.38;;;6.70;;
56929;SDS011;43458;44.012;20.922;2022-07-17T02:27:13;10.15;;;6.07;;
56929;SDS011;43458;44.012;20.922;2022-07-17T02:29:39;9.48;;;5.88;;
56929;SDS011;43458;44.012;20.922;2022-07-17T02:32:05;9.52;;;6.40;;
56929;SDS011;43458;44.012;20.922;2022-07-17T02:34:31;9.80;;;6.13;;
56929;SDS011;43458;44.012;20.922;2022-07-17T02:36:57;9.90;;;6.45;;
56929;SDS011;43458;44.012;20.922;2022-07-17T02:39:23;10.95;;;6.30;;
56929;SDS011;43458;44.012;20.922;2022-07-17T02:41:49;8.48;;;6.25;;
56929;SDS011;43458;44.012;20.922;2022-07-17T02:44:15;8.32;;;4.78;;
56929;SDS011;43458;44.012;20.922;2022-07-17T02:46:41;6.90;;;4.80;;
56929;SDS011;43458;44.012;20.922;2022-07-17T02:49:07;9.27;;;4.70;;
56929;SDS011;43458;44.012;20.922;2022-07-17T02:51:33;6.78;;;4.60;;
56929;SDS011;43458;44.012;20.922;2022-07-17T02:53:59;8.23;;;5.38;;
56929;SDS011;43458;44.012;20.922;2022-07-17T02:56:26;8.38;;;4.97;;
56929;SDS011;43458;44.012;20.922;2022-07-17T02:58:52;6.22;;;4.60;;
56929;SDS011;43458;44.012;20.922;2022-07-17T03:01:18;9.07;;;5.03;;
56929;SDS011;43458;44.012;20.922;2022-07-17T03:03:44;9.05;;;5.70;;
56929;SDS011;43458;44.012;20.922;2022-07-17T03:06:11;12.32;;;7.63;;
56929;SDS011;43458;44.012;20.922;2022-07-17T03:08:37;9.25;;;6.35;;
56929;SDS011;43458;44.012;20.922;2022-07-17T03:11:03;10.00;;;6.03;;
56929;SDS011;43458;44.012;20.922;2022-07-17T03:13:29;8.80;;;5.82;;
56929;SDS011;43458;44.012;20.922;2022-07-17T03:15:55;7.78;;;5.28;;
56929;SDS011;43458;44.012;20.922;2022-07-17T03:18:21;10.98;;;5.32;;
56929;SDS011;43458;44.012;20.922;2022-07-17T03:20:47;11.60;;;5.05;;
56929;SDS011;43458;44.012;20.922;2022-07-17T03:23:13;7.97;;;5.13;;
56929;SDS011;43458;44.012;20.922;2022-07-17T03:25:39;10.82;;;5.85;;
56929;SDS011;43458;44.012;20.922;2022-07-17T03:28:06;9.35;;;5.55;;
56929;SDS011;43458;44.012;20.922;2022-07-17T03:30:32;10.27;;;5.50;;
56929;SDS011;43458;44.012;20.922;2022-07-17T03:32:58;11.88;;;5.90;;
56929;SDS011;43458;44.012;20.922;2022-07-17T03:35:25;9.30;;;6.03;;
56929;SDS011;43458;44.012;20.922;2022-07-17T03:37:51;9.70;;;5.57;;
56929;SDS011;43458;44.012;20.922;2022-07-17T03:40:17;9.50;;;6.05;;
56929;SDS011;43458;44.012;20.922;2022-07-17T03:42:43;7.88;;;5.25;;
56929;SDS011;43458;44.012;20.922;2022-07-17T03:45:09;8.85;;;5.53;;
56929;SDS011;43458;44.012;20.922;2022-07-17T03:47:35;9.95;;;5.70;;
56929;SDS011;43458;44.012;20.922;2022-07-17T03:50:01;9.05;;;5.00;;
56929;SDS011;43458;44.012;20.922;2022-07-17T03:52:27;9.52;;;5.15;;
56929;SDS011;43458;44.012;20.922;2022-07-17T03:54:53;5.68;;;4.47;;
56929;SDS011;43458;44.012;20.922;2022-07-17T03:57:19;5.85;;;3.90;;
56929;SDS011;43458;44.012;20.922;2022-07-17T03:59:45;5.70;;;4.03;;
56929;SDS011;43458;44.012;20.922;2022-07-17T04:02:12;7.78;;;4.50;;
56929;SDS011;43458;44.012;20.922;2022-07-17T04:04:38;9.38;;;4.97;;
56929;SDS011;43458;44.012;20.922;2022-07-17T04:07:04;7.25;;;4.25;;
56929;SDS011;43458;44.012;20.922;2022-07-17T04:09:30;5.93;;;4.03;;
56929;SDS011;43458;44.012;20.922;2022-07-17T04:11:56;6.95;;;4.40;;
56929;SDS011;43458;44.012;20.922;2022-07-17T04:14:22;6.43;;;3.88;;
56929;SDS011;43458;44.012;20.922;2022-07-17T04:16:48;6.53;;;4.03;;
56929;SDS011;43458;44.012;20.922;2022-07-17T04:19:14;7.40;;;4.60;;
56929;SDS011;43458;44.012;20.922;2022-07-17T04:21:40;7.47;;;3.70;;
56929;SDS011;43458;44.012;20.922;2022-07-17T04:24:06;6.78;;;4.20;;
56929;SDS011;43458;44.012;20.922;2022-07-17T04:26:32;7.00;;;4.13;;
56929;SDS011;43458;44.012;20.922;2022-07-17T04:28:58;9.23;;;4.88;;
56929;SDS011;43458;44.012;20.922;2022-07-17T04:31:24;13.38;;;7.18;;
56929;SDS011;43458;44.012;20.922;2022-07-17T04:33:50;7.70;;;4.80;;
56929;SDS011;43458;44.012;20.922;2022-07-17T04:36:18;9.80;;;5.60;;
56929;SDS011;43458;44.012;20.922;2022-07-17T04:38:44;10.10;;;6.63;;
56929;SDS011;43458;44.012;20.922;2022-07-17T04:41:11;10.80;;;5.97;;
56929;SDS011;43458;44.012;20.922;2022-07-17T04:43:37;9.80;;;6.75;;
56929;SDS011;43458;44.012;20.922;2022-07-17T04:46:03;9.75;;;6.13;;
56929;SDS011;43458;44.012;20.922;2022-07-17T04:48:29;11.35;;;6.45;;
56929;SDS011;43458;44.012;20.922;2022-07-17T04:50:55;10.90;;;7.15;;
56929;SDS011;43458;44.012;20.922;2022-07-17T04:53:21;9.00;;;6.07;;
56929;SDS011;43458;44.012;20.922;2022-07-17T04:55:47;7.88;;;5.97;;
56929;SDS011;43458;44.012;20.922;2022-07-17T04:58:13;9.02;;;5.85;;
56929;SDS011;43458;44.012;20.922;2022-07-17T05:00:39;9.10;;;6.00;;
56929;SDS011;43458;44.012;20.922;2022-07-17T05:03:06;10.73;;;5.60;;
56929;SDS011;43458;44.012;20.922;2022-07-17T05:05:32;7.78;;;6.32;;
56929;SDS011;43458;44.012;20.922;2022-07-17T05:07:58;9.10;;;6.90;;
56929;SDS011;43458;44.012;20.922;2022-07-17T05:10:24;11.70;;;7.72;;
56929;SDS011;43458;44.012;20.922;2022-07-17T05:12:50;13.45;;;7.30;;
56929;SDS011;43458;44.012;20.922;2022-07-17T05:15:16;16.08;;;8.05;;
56929;SDS011;43458;44.012;20.922;2022-07-17T05:17:42;11.98;;;7.57;;
56929;SDS011;43458;44.012;20.922;2022-07-17T05:20:08;16.75;;;8.35;;
56929;SDS011;43458;44.012;20.922;2022-07-17T05:22:34;12.88;;;7.00;;
56929;SDS011;43458;44.012;20.922;2022-07-17T05:25:00;12.40;;;7.85;;
56929;SDS011;43458;44.012;20.922;2022-07-17T05:27:27;12.25;;;6.00;;
56929;SDS011;43458;44.012;20.922;2022-07-17T05:29:53;13.88;;;6.72;;
56929;SDS011;43458;44.012;20.922;2022-07-17T05:32:20;9.38;;;6.28;;
56929;SDS011;43458;44.012;20.922;2022-07-17T05:34:46;11.73;;;5.78;;
56929;SDS011;43458;44.012;20.922;2022-07-17T05:37:12;10.30;;;5.82;;
56929;SDS011;43458;44.012;20.922;2022-07-17T05:39:38;11.80;;;6.50;;
56929;SDS011;43458;44.012;20.922;2022-07-17T05:42:05;10.05;;;6.10;;
56929;SDS011;43458;44.012;20.922;2022-07-17T05:44:31;9.82;;;6.30;;
56929;SDS011;43458;44.012;20.922;2022-07-17T05:46:57;10.88;;;6.97;;
56929;SDS011;43458;44.012;20.922;2022-07-17T05:49:23;13.48;;;7.05;;
56929;SDS011;43458;44.012;20.922;2022-07-17T05:51:49;10.90;;;5.68;;
56929;SDS011;43458;44.012;20.922;2022-07-17T05:54:15;9.98;;;5.78;;
56929;SDS011;43458;44.012;20.922;2022-07-17T05:56:41;8.55;;;4.68;;
56929;SDS011;43458;44.012;20.922;2022-07-17T05:59:07;6.32;;;4.47;;
56929;SDS011;43458;44.012;20.922;2022-07-17T06:01:33;6.80;;;4.50;;
56929;SDS011;43458;44.012;20.922;2022-07-17T06:04:00;8.52;;;4.68;;
56929;SDS011;43458;44.012;20.922;2022-07-17T06:06:26;8.73;;;4.20;;
56929;SDS011;43458;44.012;20.922;2022-07-17T06:08:52;5.53;;;3.33;;
56929;SDS011;43458;44.012;20.922;2022-07-17T06:11:18;6.57;;;3.70;;
56929;SDS011;43458;44.012;20.922;2022-07-17T06:13:44;4.78;;;3.53;;
56929;SDS011;43458;44.012;20.922;2022-07-17T06:16:10;7.93;;;3.70;;
56929;SDS011;43458;44.012;20.922;2022-07-17T06:18:36;6.82;;;3.33;;
56929;SDS011;43458;44.012;20.922;2022-07-17T06:21:02;6.38;;;3.38;;
56929;SDS011;43458;44.012;20.922;2022-07-17T06:23:28;6.63;;;3.30;;
56929;SDS011;43458;44.012;20.922;2022-07-17T06:25:55;7.10;;;3.50;;
56929;SDS011;43458;44.012;20.922;2022-07-17T06:28:21;5.93;;;2.92;;
56929;SDS011;43458;44.012;20.922;2022-07-17T06:30:47;6.40;;;3.40;;
56929;SDS011;43458;44.012;20.922;2022-07-17T06:33:13;4.70;;;2.78;;
56929;SDS011;43458;44.012;20.922;2022-07-17T06:35:39;4.63;;;3.20;;
56929;SDS011;43458;44.012;20.922;2022-07-17T06:38:06;5.00;;;2.53;;
56929;SDS011;43458;44.012;20.922;2022-07-17T06:40:32;6.13;;;3.15;;
56929;SDS011;43458;44.012;20.922;2022-07-17T06:42:58;4.90;;;2.92;;
56929;SDS011;43458;44.012;20.922;2022-07-17T06:45:24;6.05;;;3.00;;
56929;SDS011;43458;44.012;20.922;2022-07-17T06:50:16;5.93;;;2.95;;
56929;SDS011;43458;44.012;20.922;2022-07-17T06:52:42;4.85;;;3.20;;
56929;SDS011;43458;44.012;20.922;2022-07-17T07:29:11;5.35;;;3.05;;
56929;SDS011;43458;44.012;20.922;2022-07-17T07:31:37;6.65;;;2.95;;
56929;SDS011;43458;44.012;20.922;2022-07-17T07:34:03;6.10;;;2.90;;
56929;SDS011;43458;44.012;20.922;2022-07-17T07:36:29;5.13;;;3.33;;
56929;SDS011;43458;44.012;20.922;2022-07-17T07:38:55;6.88;;;3.67;;
56929;SDS011;43458;44.012;20.922;2022-07-17T07:41:21;4.70;;;2.80;;
56929;SDS011;43458;44.012;20.922;2022-07-17T07:43:47;7.63;;;3.35;;
56929;SDS011;43458;44.012;20.922;2022-07-17T07:46:13;9.07;;;3.55;;
56929;SDS011;43458;44.012;20.922;2022-07-17T07:48:39;7.05;;;3.13;;
56929;SDS011;43458;44.012;20.922;2022-07-17T07:51:05;3.88;;;2.83;;
56929;SDS011;43458;44.012;20.922;2022-07-17T07:53:32;6.78;;;2.55;;
56929;SDS011;43458;44.012;20.922;2022-07-17T07:55:58;5.80;;;2.50;;
56929;SDS011;43458;44.012;20.922;2022-07-17T07:58:24;5.18;;;2.75;;
56929;SDS011;43458;44.012;20.922;2022-07-17T08:00:50;5.30;;;2.75;;
56929;SDS011;43458;44.012;20.922;2022-07-17T08:03:16;6.45;;;2.58;;
56929;SDS011;43458;44.012;20.922;2022-07-17T08:05:42;5.30;;;2.80;;
56929;SDS011;43458;44.012;20.922;2022-07-17T08:08:08;8.77;;;2.42;;
56929;SDS011;43458;44.012;20.922;2022-07-17T08:10:35;4.13;;;2.47;;
56929;SDS011;43458;44.012;20.922;2022-07-17T08:13:01;4.15;;;2.33;;
56929;SDS011;43458;44.012;20.922;2022-07-17T08:15:27;6.22;;;2.90;;
56929;SDS011;43458;44.012;20.922;2022-07-17T08:17:53;4.35;;;2.50;;
56929;SDS011;43458;44.012;20.922;2022-07-17T08:20:20;3.20;;;2.33;;
56929;SDS011;43458;44.012;20.922;2022-07-17T08:22:46;5.78;;;2.38;;
56929;SDS011;43458;44.012;20.922;2022-07-17T08:25:13;6.80;;;2.25;;
56929;SDS011;43458;44.012;20.922;2022-07-17T08:27:40;3.90;;;2.13;;
56929;SDS011;43458;44.012;20.922;2022-07-17T08:30:07;5.18;;;2.20;;
56929;SDS011;43458;44.012;20.922;2022-07-17T08:32:34;4.15;;;2.40;;
56929;SDS011;43458;44.012;20.922;2022-07-17T08:35:01;5.18;;;2.35;;
56929;SDS011;43458;44.012;20.922;2022-07-17T08:37:27;5.68;;;3.22;;
56929;SDS011;43458;44.012;20.922;2022-07-17T08:39:54;5.15;;;2.65;;
56929;SDS011;43458;44.012;20.922;2022-07-17T08:42:20;7.57;;;4.28;;
56929;SDS011;43458;44.012;20.922;2022-07-17T08:44:46;5.15;;;2.60;;
56929;SDS011;43458;44.012;20.922;2022-07-17T08:47:13;4.30;;;2.60;;
56929;SDS011;43458;44.012;20.922;2022-07-17T08:49:46;4.20;;;2.05;;
56929;SDS011;43458;44.012;20.922;2022-07-17T08:52:14;5.15;;;2.30;;
56929;SDS011;43458;44.012;20.922;2022-07-17T08:54:40;4.63;;;1.90;;
56929;SDS011;43458;44.012;20.922;2022-07-17T08:57:07;4.88;;;2.95;;
56929;SDS011;43458;44.012;20.922;2022-07-17T08:59:34;4.40;;;2.83;;
56929;SDS011;43458;44.012;20.922;2022-07-17T09:02:00;4.38;;;2.50;;
56929;SDS011;43458;44.012;20.922;2022-07-17T09:04:29;4.47;;;2.70;;
56929;SDS011;43458;44.012;20.922;2022-07-17T09:07:01;3.90;;;2.40;;
56929;SDS011;43458;44.012;20.922;2022-07-17T09:09:27;6.93;;;3.87;;
56929;SDS011;43458;44.012;20.922;2022-07-17T09:11:54;4.30;;;2.90;;
56929;SDS011;43458;44.012;20.922;2022-07-17T09:14:20;3.58;;;2.33;;
56929;SDS011;43458;44.012;20.922;2022-07-17T09:16:56;6.68;;;4.07;;
56929;SDS011;43458;44.012;20.922;2022-07-17T09:19:33;4.95;;;3.00;;
56929;SDS011;43458;44.012;20.922;2022-07-17T09:24:45;6.18;;;4.82;;
56929;SDS011;43458;44.012;20.922;2022-07-17T09:27:11;6.57;;;2.95;;
56929;SDS011;43458;44.012;20.922;2022-07-17T09:29:55;6.55;;;4.53;;
56929;SDS011;43458;44.012;20.922;2022-07-17T09:32:23;3.58;;;2.50;;
56929;SDS011;43458;44.012;20.922;2022-07-17T09:34:50;4.35;;;1.85;;
56929;SDS011;43458;44.012;20.922;2022-07-17T09:37:16;5.60;;;2.92;;
56929;SDS011;43458;44.012;20.922;2022-07-17T09:39:42;5.05;;;2.63;;
56929;SDS011;43458;44.012;20.922;2022-07-17T09:42:09;3.90;;;2.40;;
56929;SDS011;43458;44.012;20.922;2022-07-17T09:44:35;4.22;;;1.70;;
56929;SDS011;43458;44.012;20.922;2022-07-17T09:47:01;3.60;;;1.77;;
56929;SDS011;43458;44.012;20.922;2022-07-17T09:49:28;4.13;;;1.77;;
56929;SDS011;43458;44.012;20.922;2022-07-17T09:51:54;3.13;;;1.90;;
56929;SDS011;43458;44.012;20.922;2022-07-17T09:54:21;4.70;;;2.10;;
56929;SDS011;43458;44.012;20.922;2022-07-17T09:56:49;3.35;;;1.63;;
56929;SDS011;43458;44.012;20.922;2022-07-17T09:59:15;3.53;;;1.75;;
56929;SDS011;43458;44.012;20.922;2022-07-17T10:01:42;4.82;;;1.80;;
56929;SDS011;43458;44.012;20.922;2022-07-17T10:04:09;5.47;;;3.00;;
56929;SDS011;43458;44.012;20.922;2022-07-17T10:06:35;3.05;;;1.60;;
56929;SDS011;43458;44.012;20.922;2022-07-17T10:09:02;11.13;;;2.20;;
56929;SDS011;43458;44.012;20.922;2022-07-17T10:11:30;3.30;;;2.00;;
56929;SDS011;43458;44.012;20.922;2022-07-17T10:14:07;3.13;;;1.40;;
56929;SDS011;43458;44.012;20.922;2022-07-17T10:16:34;4.95;;;2.08;;
56929;SDS011;43458;44.012;20.922;2022-07-17T10:19:23;3.40;;;1.65;;
56929;SDS011;43458;44.012;20.922;2022-07-17T10:21:57;3.25;;;1.90;;
56929;SDS011;43458;44.012;20.922;2022-07-17T10:24:25;3.53;;;1.88;;
56929;SDS011;43458;44.012;20.922;2022-07-17T10:26:51;5.38;;;3.60;;
56929;SDS011;43458;44.012;20.922;2022-07-17T10:29:34;3.22;;;1.80;;
56929;SDS011;43458;44.012;20.922;2022-07-17T10:32:02;2.40;;;1.42;;
56929;SDS011;43458;44.012;20.922;2022-07-17T10:39:51;4.72;;;2.35;;
56929;SDS011;43458;44.012;20.922;2022-07-17T10:42:36;5.28;;;3.28;;
56929;SDS011;43458;44.012;20.922;2022-07-17T10:45:36;4.60;;;1.92;;
56929;SDS011;43458;44.012;20.922;2022-07-17T10:47:59;4.38;;;2.35;;
56929;SDS011;43458;44.012;20.922;2022-07-17T10:50:30;4.95;;;2.42;;
56929;SDS011;43458;44.012;20.922;2022-07-17T10:53:08;4.03;;;2.00;;
56929;SDS011;43458;44.012;20.922;2022-07-17T10:55:39;4.28;;;1.70;;
56929;SDS011;43458;44.012;20.922;2022-07-17T10:58:15;3.55;;;1.83;;
56929;SDS011;43458;44.012;20.922;2022-07-17T11:00:41;3.55;;;1.90;;
56929;SDS011;43458;44.012;20.922;2022-07-17T11:03:08;4.13;;;1.60;;
56929;SDS011;43458;44.012;20.922;2022-07-17T11:05:34;4.40;;;2.60;;
56929;SDS011;43458;44.012;20.922;2022-07-17T11:08:00;4.68;;;2.70;;
56929;SDS011;43458;44.012;20.922;2022-07-17T11:10:27;6.93;;;3.97;;
56929;SDS011;43458;44.012;20.922;2022-07-17T11:12:54;4.03;;;1.50;;
56929;SDS011;43458;44.012;20.922;2022-07-17T11:15:21;12.18;;;1.90;;
56929;SDS011;43458;44.012;20.922;2022-07-17T11:17:47;5.55;;;3.78;;
56929;SDS011;43458;44.012;20.922;2022-07-17T11:20:14;5.07;;;3.10;;
56929;SDS011;43458;44.012;20.922;2022-07-17T11:22:40;7.07;;;3.67;;
56929;SDS011;43458;44.012;20.922;2022-07-17T11:25:07;9.75;;;3.30;;
56929;SDS011;43458;44.012;20.922;2022-07-17T11:27:35;3.28;;;2.17;;
56929;SDS011;43458;44.012;20.922;2022-07-17T11:30:02;10.73;;;6.47;;
56929;SDS011;43458;44.012;20.922;2022-07-17T11:32:32;5.43;;;1.85;;
56929;SDS011;43458;44.012;20.922;2022-07-17T11:34:58;4.15;;;2.40;;
56929;SDS011;43458;44.012;20.922;2022-07-17T11:37:27;4.50;;;1.95;;
56929;SDS011;43458;44.012;20.922;2022-07-17T11:39:53;4.85;;;1.90;;
56929;SDS011;43458;44.012;20.922;2022-07-17T11:42:21;3.20;;;1.95;;
56929;SDS011;43458;44.012;20.922;2022-07-17T11:44:51;4.32;;;1.90;;
56929;SDS011;43458;44.012;20.922;2022-07-17T11:47:22;4.30;;;1.90;;
56929;SDS011;43458;44.012;20.922;2022-07-17T11:49:48;3.72;;;1.80;;
56929;SDS011;43458;44.012;20.922;2022-07-17T11:52:23;5.30;;;2.30;;
56929;SDS011;43458;44.012;20.922;2022-07-17T11:54:51;5.82;;;2.78;;
56929;SDS011;43458;44.012;20.922;2022-07-17T11:57:19;6.38;;;2.75;;
56929;SDS011;43458;44.012;20.922;2022-07-17T11:59:45;4.45;;;2.28;;
56929;SDS011;43458;44.012;20.922;2022-07-17T12:04:54;4.20;;;3.00;;
56929;SDS011;43458;44.012;20.922;2022-07-17T12:07:21;4.57;;;1.85;;
56929;SDS011;43458;44.012;20.922;2022-07-17T12:09:47;3.00;;;2.08;;
56929;SDS011;43458;44.012;20.922;2022-07-17T12:12:23;7.82;;;5.20;;
56929;SDS011;43458;44.012;20.922;2022-07-17T12:17:19;5.90;;;4.13;;
56929;SDS011;43458;44.012;20.922;2022-07-17T12:19:45;4.72;;;2.08;;
56929;SDS011;43458;44.012;20.922;2022-07-17T12:22:12;4.85;;;3.20;;
56929;SDS011;43458;44.012;20.922;2022-07-17T12:24:39;5.15;;;1.90;;
56929;SDS011;43458;44.012;20.922;2022-07-17T12:27:07;5.30;;;2.10;;
56929;SDS011;43458;44.012;20.922;2022-07-17T12:29:33;4.82;;;2.20;;
56929;SDS011;43458;44.012;20.922;2022-07-17T12:32:10;7.40;;;2.67;;
56929;SDS011;43458;44.012;20.922;2022-07-17T12:34:38;6.65;;;2.30;;
56929;SDS011;43458;44.012;20.922;2022-07-17T12:37:10;5.43;;;1.80;;
56929;SDS011;43458;44.012;20.922;2022-07-17T12:39:36;3.50;;;1.75;;
56929;SDS011;43458;44.012;20.922;2022-07-17T12:42:02;3.58;;;1.90;;
56929;SDS011;43458;44.012;20.922;2022-07-17T12:44:28;6.10;;;2.03;;
56929;SDS011;43458;44.012;20.922;2022-07-17T12:46:55;4.90;;;1.80;;
56929;SDS011;43458;44.012;20.922;2022-07-17T12:49:21;4.32;;;2.42;;
56929;SDS011;43458;44.012;20.922;2022-07-17T12:51:49;4.47;;;1.92;;
56929;SDS011;43458;44.012;20.922;2022-07-17T12:54:15;4.10;;;1.52;;
56929;SDS011;43458;44.012;20.922;2022-07-17T12:56:41;5.18;;;2.00;;
56929;SDS011;43458;44.012;20.922;2022-07-17T12:59:07;3.30;;;1.95;;
56929;SDS011;43458;44.012;20.922;2022-07-17T13:01:33;3.05;;;1.70;;
56929;SDS011;43458;44.012;20.922;2022-07-17T13:03:59;7.30;;;4.03;;
56929;SDS011;43458;44.012;20.922;2022-07-17T13:06:25;3.97;;;1.92;;
56929;SDS011;43458;44.012;20.922;2022-07-17T13:08:52;4.22;;;2.03;;
56929;SDS011;43458;44.012;20.922;2022-07-17T13:11:18;5.80;;;2.72;;
56929;SDS011;43458;44.012;20.922;2022-07-17T13:13:44;3.63;;;2.50;;
56929;SDS011;43458;44.012;20.922;2022-07-17T13:16:10;4.03;;;1.90;;
56929;SDS011;43458;44.012;20.922;2022-07-17T13:18:37;3.35;;;1.73;;
56929;SDS011;43458;44.012;20.922;2022-07-17T13:21:04;6.97;;;2.60;;
56929;SDS011;43458;44.012;20.922;2022-07-17T13:23:31;4.85;;;2.85;;
56929;SDS011;43458;44.012;20.922;2022-07-17T13:25:58;4.68;;;2.10;;
56929;SDS011;43458;44.012;20.922;2022-07-17T13:28:24;4.22;;;1.67;;
56929;SDS011;43458;44.012;20.922;2022-07-17T13:30:51;3.83;;;1.60;;
56929;SDS011;43458;44.012;20.922;2022-07-17T13:33:17;4.32;;;2.65;;
56929;SDS011;43458;44.012;20.922;2022-07-17T13:35:43;7.28;;;2.92;;
56929;SDS011;43458;44.012;20.922;2022-07-17T13:38:09;7.30;;;4.65;;
56929;SDS011;43458;44.012;20.922;2022-07-17T13:40:35;4.47;;;2.40;;
56929;SDS011;43458;44.012;20.922;2022-07-17T13:43:02;3.20;;;1.60;;
56929;SDS011;43458;44.012;20.922;2022-07-17T13:45:28;5.95;;;2.00;;
56929;SDS011;43458;44.012;20.922;2022-07-17T13:47:55;3.63;;;2.25;;
56929;SDS011;43458;44.012;20.922;2022-07-17T13:50:21;3.90;;;2.00;;
56929;SDS011;43458;44.012;20.922;2022-07-17T13:52:47;5.03;;;1.90;;
56929;SDS011;43458;44.012;20.922;2022-07-17T13:55:14;4.95;;;2.30;;
56929;SDS011;43458;44.012;20.922;2022-07-17T13:57:40;4.18;;;1.98;;
56929;SDS011;43458;44.012;20.922;2022-07-17T14:00:07;3.28;;;1.92;;
56929;SDS011;43458;44.012;20.922;2022-07-17T14:02:34;4.18;;;2.15;;
56929;SDS011;43458;44.012;20.922;2022-07-17T14:05:00;5.35;;;1.92;;
56929;SDS011;43458;44.012;20.922;2022-07-17T14:07:26;3.10;;;1.95;;
56929;SDS011;43458;44.012;20.922;2022-07-17T14:09:52;2.70;;;1.80;;
56929;SDS011;43458;44.012;20.922;2022-07-17T14:12:18;6.07;;;1.77;;
56929;SDS011;43458;44.012;20.922;2022-07-17T14:14:44;6.43;;;2.00;;
56929;SDS011;43458;44.012;20.922;2022-07-17T14:17:10;15.00;;;2.90;;
56929;SDS011;43458;44.012;20.922;2022-07-17T14:19:36;3.55;;;1.98;;
56929;SDS011;43458;44.012;20.922;2022-07-17T14:22:03;5.40;;;2.08;;
56929;SDS011;43458;44.012;20.922;2022-07-17T14:24:29;4.13;;;2.00;;
56929;SDS011;43458;44.012;20.922;2022-07-17T14:26:55;5.70;;;2.05;;
56929;SDS011;43458;44.012;20.922;2022-07-17T14:29:21;4.07;;;2.03;;
56929;SDS011;43458;44.012;20.922;2022-07-17T14:31:47;6.97;;;2.05;;
56929;SDS011;43458;44.012;20.922;2022-07-17T14:34:13;4.53;;;2.22;;
56929;SDS011;43458;44.012;20.922;2022-07-17T14:36:41;4.90;;;2.63;;
56929;SDS011;43458;44.012;20.922;2022-07-17T14:41:58;4.78;;;2.47;;
56929;SDS011;43458;44.012;20.922;2022-07-17T14:44:25;6.25;;;2.00;;
56929;SDS011;43458;44.012;20.922;2022-07-17T14:46:52;5.47;;;2.30;;
56929;SDS011;43458;44.012;20.922;2022-07-17T14:49:18;4.10;;;2.10;;
56929;SDS011;43458;44.012;20.922;2022-07-17T14:51:44;5.18;;;2.00;;
56929;SDS011;43458;44.012;20.922;2022-07-17T14:54:10;2.75;;;1.67;;
56929;SDS011;43458;44.012;20.922;2022-07-17T14:56:36;3.70;;;1.80;;
56929;SDS011;43458;44.012;20.922;2022-07-17T14:59:03;4.25;;;2.45;;
56929;SDS011;43458;44.012;20.922;2022-07-17T15:01:29;6.90;;;3.50;;
56929;SDS011;43458;44.012;20.922;2022-07-17T15:03:55;7.10;;;4.85;;
56929;SDS011;43458;44.012;20.922;2022-07-17T15:06:21;5.45;;;2.90;;
56929;SDS011;43458;44.012;20.922;2022-07-17T15:08:47;6.63;;;3.40;;
56929;SDS011;43458;44.012;20.922;2022-07-17T15:11:13;4.43;;;2.58;;
56929;SDS011;43458;44.012;20.922;2022-07-17T15:13:39;4.75;;;2.17;;
56929;SDS011;43458;44.012;20.922;2022-07-17T15:16:06;4.78;;;2.72;;
56929;SDS011;43458;44.012;20.922;2022-07-17T15:18:32;3.88;;;2.17;;
56929;SDS011;43458;44.012;20.922;2022-07-17T15:20:58;5.15;;;2.08;;
56929;SDS011;43458;44.012;20.922;2022-07-17T15:23:24;4.20;;;2.50;;
56929;SDS011;43458;44.012;20.922;2022-07-17T15:25:50;3.28;;;2.22;;